sensor_id;sensor_type;location;lat;lon;timestamp;P1;durP1;ratioP1;P2;durP2;ratioP2
46717;SDS011;32448;44.960;-0.698;2022-09-25T00:01:12;3.55;;;1.77;;
46717;SDS011;32448;44.960;-0.698;2022-09-25T00:03:40;6.40;;;2.10;;
46717;SDS011;32448;44.960;-0.698;2022-09-25T00:06:09;4.97;;;2.08;;
46717;SDS011;32448;44.960;-0.698;2022-09-25T00:08:40;12.43;;;2.00;;
46717;SDS011;32448;44.960;-0.698;2022-09-25T00:11:12;7.07;;;2.05;;
46717;SDS011;32448;44.960;-0.698;2022-09-25T00:13:42;6.00;;;2.13;;
46717;SDS011;32448;44.960;-0.698;2022-09-25T00:16:16;5.10;;;1.60;;
46717;SDS011;32448;44.960;-0.698;2022-09-25T00:18:45;6.03;;;1.83;;
46717;SDS011;32448;44.960;-0.698;2022-09-25T00:21:32;6.63;;;1.63;;
46717;SDS011;32448;44.960;-0.698;2022-09-25T00:24:01;6.60;;;1.85;;
46717;SDS011;32448;44.960;-0.698;2022-09-25T00:26:32;2.95;;;1.50;;
46717;SDS011;32448;44.960;-0.698;2022-09-25T00:29:01;3.78;;;1.65;;
46717;SDS011;32448;44.960;-0.698;2022-09-25T00:31:29;4.60;;;2.15;;
46717;SDS011;32448;44.960;-0.698;2022-09-25T00:33:57;4.32;;;1.77;;
46717;SDS011;32448;44.960;-0.698;2022-09-25T00:36:26;3.70;;;1.35;;
46717;SDS011;32448;44.960;-0.698;2022-09-25T00:38:54;3.60;;;1.60;;
46717;SDS011;32448;44.960;-0.698;2022-09-25T00:41:22;4.40;;;1.60;;
46717;SDS011;32448;44.960;-0.698;2022-09-25T00:43:55;3.58;;;1.45;;
46717;SDS011;32448;44.960;-0.698;2022-09-25T00:46:27;5.35;;;1.60;;
46717;SDS011;32448;44.960;-0.698;2022-09-25T00:51:36;6.72;;;1.40;;
46717;SDS011;32448;44.960;-0.698;2022-09-25T00:57:00;3.10;;;1.30;;
46717;SDS011;32448;44.960;-0.698;2022-09-25T00:59:35;4.82;;;1.60;;
46717;SDS011;32448;44.960;-0.698;2022-09-25T01:02:08;4.32;;;1.33;;
46717;SDS011;32448;44.960;-0.698;2022-09-25T01:04:39;4.10;;;1.50;;
46717;SDS011;32448;44.960;-0.698;2022-09-25T01:07:12;4.47;;;1.60;;
46717;SDS011;32448;44.960;-0.698;2022-09-25T01:09:40;4.18;;;1.48;;
46717;SDS011;32448;44.960;-0.698;2022-09-25T01:12:07;4.10;;;1.80;;
46717;SDS011;32448;44.960;-0.698;2022-09-25T01:14:35;4.53;;;1.70;;
46717;SDS011;32448;44.960;-0.698;2022-09-25T01:17:13;3.75;;;1.50;;
46717;SDS011;32448;44.960;-0.698;2022-09-25T01:31:08;7.18;;;2.03;;
46717;SDS011;32448;44.960;-0.698;2022-09-25T01:33:42;3.92;;;1.70;;
46717;SDS011;32448;44.960;-0.698;2022-09-25T01:36:16;5.78;;;1.67;;
46717;SDS011;32448;44.960;-0.698;2022-09-25T01:39:10;3.45;;;1.65;;
46717;SDS011;32448;44.960;-0.698;2022-09-25T01:41:49;4.65;;;1.77;;
46717;SDS011;32448;44.960;-0.698;2022-09-25T01:44:31;4.95;;;1.50;;
46717;SDS011;32448;44.960;-0.698;2022-09-25T01:47:04;2.25;;;1.35;;
46717;SDS011;32448;44.960;-0.698;2022-09-25T01:49:37;4.10;;;1.67;;
46717;SDS011;32448;44.960;-0.698;2022-09-25T01:52:12;2.22;;;1.55;;
46717;SDS011;32448;44.960;-0.698;2022-09-25T01:54:50;3.85;;;1.77;;
46717;SDS011;32448;44.960;-0.698;2022-09-25T02:00:04;5.43;;;1.92;;
46717;SDS011;32448;44.960;-0.698;2022-09-25T02:02:41;4.97;;;2.45;;
46717;SDS011;32448;44.960;-0.698;2022-09-25T02:08:24;5.03;;;2.10;;
46717;SDS011;32448;44.960;-0.698;2022-09-25T02:10:57;5.15;;;2.10;;
46717;SDS011;32448;44.960;-0.698;2022-09-25T02:13:30;2.85;;;1.80;;
46717;SDS011;32448;44.960;-0.698;2022-09-25T02:16:04;4.80;;;1.55;;
46717;SDS011;32448;44.960;-0.698;2022-09-25T02:18:36;3.63;;;1.80;;
46717;SDS011;32448;44.960;-0.698;2022-09-25T02:22:07;3.63;;;2.08;;
46717;SDS011;32448;44.960;-0.698;2022-09-25T02:27:02;4.55;;;1.60;;
46717;SDS011;32448;44.960;-0.698;2022-09-25T02:29:30;6.30;;;1.75;;
46717;SDS011;32448;44.960;-0.698;2022-09-25T02:31:58;4.90;;;1.38;;
46717;SDS011;32448;44.960;-0.698;2022-09-25T02:34:31;2.65;;;1.83;;
46717;SDS011;32448;44.960;-0.698;2022-09-25T02:36:58;3.28;;;1.55;;
46717;SDS011;32448;44.960;-0.698;2022-09-25T02:39:27;3.28;;;1.63;;
46717;SDS011;32448;44.960;-0.698;2022-09-25T02:42:03;4.57;;;2.20;;
46717;SDS011;32448;44.960;-0.698;2022-09-25T02:45:27;1.80;;;1.50;;
46717;SDS011;32448;44.960;-0.698;2022-09-25T02:47:49;2.35;;;1.38;;
46717;SDS011;32448;44.960;-0.698;2022-09-25T02:56:54;5.10;;;1.60;;
46717;SDS011;32448;44.960;-0.698;2022-09-25T02:59:32;3.92;;;1.30;;
46717;SDS011;32448;44.960;-0.698;2022-09-25T03:02:04;3.42;;;1.45;;
46717;SDS011;32448;44.960;-0.698;2022-09-25T03:04:32;4.25;;;1.50;;
46717;SDS011;32448;44.960;-0.698;2022-09-25T03:07:02;3.17;;;1.40;;
46717;SDS011;32448;44.960;-0.698;2022-09-25T03:09:30;4.10;;;1.88;;
46717;SDS011;32448;44.960;-0.698;2022-09-25T03:12:02;3.17;;;1.63;;
46717;SDS011;32448;44.960;-0.698;2022-09-25T03:14:34;2.45;;;1.40;;
46717;SDS011;32448;44.960;-0.698;2022-09-25T03:17:01;2.83;;;1.50;;
46717;SDS011;32448;44.960;-0.698;2022-09-25T03:19:32;2.47;;;1.60;;
46717;SDS011;32448;44.960;-0.698;2022-09-25T03:22:00;2.88;;;1.48;;
46717;SDS011;32448;44.960;-0.698;2022-09-25T03:24:28;3.65;;;1.90;;
46717;SDS011;32448;44.960;-0.698;2022-09-25T03:26:55;2.75;;;1.50;;
46717;SDS011;32448;44.960;-0.698;2022-09-25T03:29:23;5.88;;;1.55;;
46717;SDS011;32448;44.960;-0.698;2022-09-25T03:31:50;4.18;;;1.50;;
46717;SDS011;32448;44.960;-0.698;2022-09-25T03:34:17;3.22;;;1.40;;
46717;SDS011;32448;44.960;-0.698;2022-09-25T03:36:44;3.38;;;1.65;;
46717;SDS011;32448;44.960;-0.698;2022-09-25T03:39:14;3.08;;;1.55;;
46717;SDS011;32448;44.960;-0.698;2022-09-25T03:41:43;3.78;;;1.58;;
46717;SDS011;32448;44.960;-0.698;2022-09-25T03:44:11;3.55;;;1.40;;
46717;SDS011;32448;44.960;-0.698;2022-09-25T03:46:38;2.75;;;1.45;;
46717;SDS011;32448;44.960;-0.698;2022-09-25T03:49:05;3.15;;;1.45;;
46717;SDS011;32448;44.960;-0.698;2022-09-25T03:51:33;3.67;;;1.50;;
46717;SDS011;32448;44.960;-0.698;2022-09-25T03:54:00;2.45;;;1.50;;
46717;SDS011;32448;44.960;-0.698;2022-09-25T03:56:29;2.95;;;1.65;;
46717;SDS011;32448;44.960;-0.698;2022-09-25T03:58:58;3.28;;;1.70;;
46717;SDS011;32448;44.960;-0.698;2022-09-25T04:01:26;6.05;;;1.73;;
46717;SDS011;32448;44.960;-0.698;2022-09-25T04:03:54;2.28;;;1.50;;
46717;SDS011;32448;44.960;-0.698;2022-09-25T04:06:23;2.45;;;1.40;;
46717;SDS011;32448;44.960;-0.698;2022-09-25T04:08:52;2.38;;;1.60;;
46717;SDS011;32448;44.960;-0.698;2022-09-25T04:11:20;3.58;;;1.40;;
46717;SDS011;32448;44.960;-0.698;2022-09-25T04:13:48;4.18;;;1.50;;
46717;SDS011;32448;44.960;-0.698;2022-09-25T04:16:16;3.25;;;1.80;;
46717;SDS011;32448;44.960;-0.698;2022-09-25T04:18:43;3.50;;;1.60;;
46717;SDS011;32448;44.960;-0.698;2022-09-25T04:21:11;3.50;;;1.60;;
46717;SDS011;32448;44.960;-0.698;2022-09-25T04:23:39;3.70;;;1.67;;
46717;SDS011;32448;44.960;-0.698;2022-09-25T04:26:07;4.18;;;1.70;;
46717;SDS011;32448;44.960;-0.698;2022-09-25T04:28:35;2.95;;;1.45;;
46717;SDS011;32448;44.960;-0.698;2022-09-25T04:31:03;3.40;;;1.48;;
46717;SDS011;32448;44.960;-0.698;2022-09-25T04:33:30;3.28;;;1.50;;
46717;SDS011;32448;44.960;-0.698;2022-09-25T04:36:13;3.83;;;1.30;;
46717;SDS011;32448;44.960;-0.698;2022-09-25T04:38:45;3.72;;;1.70;;
46717;SDS011;32448;44.960;-0.698;2022-09-25T04:41:14;4.15;;;2.22;;
46717;SDS011;32448;44.960;-0.698;2022-09-25T04:43:42;1.95;;;1.38;;
46717;SDS011;32448;44.960;-0.698;2022-09-25T04:46:10;4.70;;;1.52;;
46717;SDS011;32448;44.960;-0.698;2022-09-25T04:48:45;2.72;;;1.50;;
46717;SDS011;32448;44.960;-0.698;2022-09-25T04:51:12;4.35;;;1.70;;
46717;SDS011;32448;44.960;-0.698;2022-09-25T04:53:40;1.90;;;1.30;;
46717;SDS011;32448;44.960;-0.698;2022-09-25T04:56:07;2.22;;;1.48;;
46717;SDS011;32448;44.960;-0.698;2022-09-25T04:58:45;2.28;;;1.63;;
46717;SDS011;32448;44.960;-0.698;2022-09-25T05:01:15;2.72;;;1.40;;
46717;SDS011;32448;44.960;-0.698;2022-09-25T05:03:48;3.85;;;1.60;;
46717;SDS011;32448;44.960;-0.698;2022-09-25T05:06:16;3.70;;;1.75;;
46717;SDS011;32448;44.960;-0.698;2022-09-25T05:08:46;4.43;;;1.90;;
46717;SDS011;32448;44.960;-0.698;2022-09-25T05:11:15;6.68;;;1.60;;
46717;SDS011;32448;44.960;-0.698;2022-09-25T05:13:42;4.07;;;1.88;;
46717;SDS011;32448;44.960;-0.698;2022-09-25T05:16:12;3.50;;;1.52;;
46717;SDS011;32448;44.960;-0.698;2022-09-25T05:18:39;3.70;;;1.30;;
46717;SDS011;32448;44.960;-0.698;2022-09-25T05:21:07;2.70;;;1.40;;
46717;SDS011;32448;44.960;-0.698;2022-09-25T05:23:34;2.72;;;1.45;;
46717;SDS011;32448;44.960;-0.698;2022-09-25T05:26:01;2.22;;;1.40;;
46717;SDS011;32448;44.960;-0.698;2022-09-25T05:28:29;2.67;;;1.38;;
46717;SDS011;32448;44.960;-0.698;2022-09-25T05:30:58;2.95;;;1.42;;
46717;SDS011;32448;44.960;-0.698;2022-09-25T05:33:32;2.03;;;1.30;;
46717;SDS011;32448;44.960;-0.698;2022-09-25T05:36:01;2.33;;;1.50;;
46717;SDS011;32448;44.960;-0.698;2022-09-25T05:38:33;1.92;;;1.45;;
46717;SDS011;32448;44.960;-0.698;2022-09-25T05:41:03;3.58;;;1.35;;
46717;SDS011;32448;44.960;-0.698;2022-09-25T05:43:33;3.30;;;1.60;;
46717;SDS011;32448;44.960;-0.698;2022-09-25T05:46:03;2.50;;;1.48;;
46717;SDS011;32448;44.960;-0.698;2022-09-25T05:48:30;3.15;;;1.38;;
46717;SDS011;32448;44.960;-0.698;2022-09-25T05:50:58;4.63;;;1.58;;
46717;SDS011;32448;44.960;-0.698;2022-09-25T05:53:25;2.65;;;1.30;;
46717;SDS011;32448;44.960;-0.698;2022-09-25T05:55:54;3.72;;;1.70;;
46717;SDS011;32448;44.960;-0.698;2022-09-25T05:58:26;13.13;;;2.00;;
46717;SDS011;32448;44.960;-0.698;2022-09-25T06:00:54;3.80;;;1.58;;
46717;SDS011;32448;44.960;-0.698;2022-09-25T06:03:21;3.05;;;1.25;;
46717;SDS011;32448;44.960;-0.698;2022-09-25T06:05:49;3.45;;;1.58;;
46717;SDS011;32448;44.960;-0.698;2022-09-25T06:08:16;3.33;;;1.30;;
46717;SDS011;32448;44.960;-0.698;2022-09-25T06:10:43;3.25;;;1.38;;
46717;SDS011;32448;44.960;-0.698;2022-09-25T06:13:10;2.92;;;1.70;;
46717;SDS011;32448;44.960;-0.698;2022-09-25T06:15:40;8.70;;;1.67;;
46717;SDS011;32448;44.960;-0.698;2022-09-25T06:18:07;6.55;;;1.85;;
46717;SDS011;32448;44.960;-0.698;2022-09-25T06:20:35;6.07;;;1.80;;
46717;SDS011;32448;44.960;-0.698;2022-09-25T06:23:02;3.47;;;1.50;;
46717;SDS011;32448;44.960;-0.698;2022-09-25T06:25:30;5.95;;;1.70;;
46717;SDS011;32448;44.960;-0.698;2022-09-25T06:28:02;4.47;;;1.60;;
46717;SDS011;32448;44.960;-0.698;2022-09-25T06:30:31;3.47;;;1.60;;
46717;SDS011;32448;44.960;-0.698;2022-09-25T06:33:01;1.75;;;1.52;;
46717;SDS011;32448;44.960;-0.698;2022-09-25T06:35:33;2.53;;;1.60;;
46717;SDS011;32448;44.960;-0.698;2022-09-25T06:38:00;3.25;;;1.40;;
46717;SDS011;32448;44.960;-0.698;2022-09-25T06:40:29;1.80;;;1.38;;
46717;SDS011;32448;44.960;-0.698;2022-09-25T06:42:57;2.30;;;1.40;;
46717;SDS011;32448;44.960;-0.698;2022-09-25T06:45:29;3.85;;;1.40;;
46717;SDS011;32448;44.960;-0.698;2022-09-25T06:48:02;1.67;;;1.40;;
46717;SDS011;32448;44.960;-0.698;2022-09-25T06:50:49;2.33;;;1.50;;
46717;SDS011;32448;44.960;-0.698;2022-09-25T06:53:18;3.88;;;1.67;;
46717;SDS011;32448;44.960;-0.698;2022-09-25T06:55:47;3.60;;;1.50;;
46717;SDS011;32448;44.960;-0.698;2022-09-25T06:58:17;3.85;;;1.60;;
46717;SDS011;32448;44.960;-0.698;2022-09-25T07:00:49;2.92;;;1.40;;
46717;SDS011;32448;44.960;-0.698;2022-09-25T07:03:18;1.73;;;1.40;;
46717;SDS011;32448;44.960;-0.698;2022-09-25T07:06:05;2.10;;;1.40;;
46717;SDS011;32448;44.960;-0.698;2022-09-25T07:08:33;3.50;;;1.70;;
46717;SDS011;32448;44.960;-0.698;2022-09-25T07:11:01;3.47;;;1.70;;
46717;SDS011;32448;44.960;-0.698;2022-09-25T07:13:30;2.85;;;1.42;;
46717;SDS011;32448;44.960;-0.698;2022-09-25T07:16:00;2.75;;;1.48;;
46717;SDS011;32448;44.960;-0.698;2022-09-25T07:18:30;2.17;;;1.35;;
46717;SDS011;32448;44.960;-0.698;2022-09-25T07:20:59;2.28;;;1.33;;
46717;SDS011;32448;44.960;-0.698;2022-09-25T07:23:30;1.77;;;1.33;;
46717;SDS011;32448;44.960;-0.698;2022-09-25T07:26:08;2.05;;;1.60;;
46717;SDS011;32448;44.960;-0.698;2022-09-25T07:28:37;2.78;;;1.55;;
46717;SDS011;32448;44.960;-0.698;2022-09-25T07:31:09;1.83;;;1.60;;
46717;SDS011;32448;44.960;-0.698;2022-09-25T07:33:40;1.60;;;1.38;;
46717;SDS011;32448;44.960;-0.698;2022-09-25T07:36:08;4.28;;;1.52;;
46717;SDS011;32448;44.960;-0.698;2022-09-25T07:38:35;2.00;;;1.27;;
46717;SDS011;32448;44.960;-0.698;2022-09-25T07:41:03;3.65;;;1.48;;
46717;SDS011;32448;44.960;-0.698;2022-09-25T07:43:32;2.90;;;1.50;;
46717;SDS011;32448;44.960;-0.698;2022-09-25T07:46:00;5.45;;;2.53;;
46717;SDS011;32448;44.960;-0.698;2022-09-25T07:48:27;3.70;;;2.30;;
46717;SDS011;32448;44.960;-0.698;2022-09-25T07:51:00;4.35;;;2.70;;
46717;SDS011;32448;44.960;-0.698;2022-09-25T07:53:27;4.82;;;2.65;;
46717;SDS011;32448;44.960;-0.698;2022-09-25T07:55:59;4.93;;;2.92;;
46717;SDS011;32448;44.960;-0.698;2022-09-25T07:58:33;5.07;;;3.10;;
46717;SDS011;32448;44.960;-0.698;2022-09-25T08:01:04;4.55;;;3.03;;
46717;SDS011;32448;44.960;-0.698;2022-09-25T08:03:36;4.57;;;2.60;;
46717;SDS011;32448;44.960;-0.698;2022-09-25T08:06:11;4.10;;;2.13;;
46717;SDS011;32448;44.960;-0.698;2022-09-25T08:08:43;6.22;;;2.95;;
46717;SDS011;32448;44.960;-0.698;2022-09-25T08:11:15;4.13;;;2.42;;
46717;SDS011;32448;44.960;-0.698;2022-09-25T08:13:47;9.15;;;2.75;;
46717;SDS011;32448;44.960;-0.698;2022-09-25T08:16:19;9.95;;;3.25;;
46717;SDS011;32448;44.960;-0.698;2022-09-25T08:18:49;8.93;;;3.00;;
46717;SDS011;32448;44.960;-0.698;2022-09-25T08:21:20;5.95;;;2.50;;
46717;SDS011;32448;44.960;-0.698;2022-09-25T08:23:49;4.97;;;2.45;;
46717;SDS011;32448;44.960;-0.698;2022-09-25T08:26:23;4.25;;;1.90;;
46717;SDS011;32448;44.960;-0.698;2022-09-25T08:28:51;5.78;;;2.70;;
46717;SDS011;32448;44.960;-0.698;2022-09-25T08:31:20;6.95;;;2.50;;
46717;SDS011;32448;44.960;-0.698;2022-09-25T08:34:02;4.73;;;2.17;;
46717;SDS011;32448;44.960;-0.698;2022-09-25T08:36:51;4.82;;;2.00;;
46717;SDS011;32448;44.960;-0.698;2022-09-25T08:39:22;6.95;;;2.00;;
46717;SDS011;32448;44.960;-0.698;2022-09-25T08:41:57;2.55;;;1.52;;
46717;SDS011;32448;44.960;-0.698;2022-09-25T08:44:29;3.63;;;1.92;;
46717;SDS011;32448;44.960;-0.698;2022-09-25T08:47:09;4.35;;;1.63;;
46717;SDS011;32448;44.960;-0.698;2022-09-25T08:52:40;4.88;;;2.08;;
46717;SDS011;32448;44.960;-0.698;2022-09-25T08:55:46;3.65;;;1.52;;
46717;SDS011;32448;44.960;-0.698;2022-09-25T08:58:29;7.05;;;1.77;;
46717;SDS011;32448;44.960;-0.698;2022-09-25T09:01:03;5.97;;;2.00;;
46717;SDS011;32448;44.960;-0.698;2022-09-25T09:03:37;3.80;;;1.55;;
46717;SDS011;32448;44.960;-0.698;2022-09-25T09:06:13;3.30;;;1.42;;
46717;SDS011;32448;44.960;-0.698;2022-09-25T09:08:43;3.45;;;1.33;;
46717;SDS011;32448;44.960;-0.698;2022-09-25T09:11:16;3.15;;;1.30;;
46717;SDS011;32448;44.960;-0.698;2022-09-25T09:16:39;2.83;;;1.17;;
46717;SDS011;32448;44.960;-0.698;2022-09-25T09:19:29;4.32;;;1.10;;
46717;SDS011;32448;44.960;-0.698;2022-09-25T09:22:01;4.55;;;1.45;;
46717;SDS011;32448;44.960;-0.698;2022-09-25T09:24:54;2.03;;;1.23;;
46717;SDS011;32448;44.960;-0.698;2022-09-25T09:30:32;2.55;;;1.20;;
46717;SDS011;32448;44.960;-0.698;2022-09-25T09:33:47;2.47;;;1.25;;
46717;SDS011;32448;44.960;-0.698;2022-09-25T09:46:47;3.42;;;1.40;;
46717;SDS011;32448;44.960;-0.698;2022-09-25T09:49:46;1.88;;;0.80;;
46717;SDS011;32448;44.960;-0.698;2022-09-25T09:52:24;2.75;;;1.02;;
46717;SDS011;32448;44.960;-0.698;2022-09-25T09:55:03;3.22;;;1.10;;
46717;SDS011;32448;44.960;-0.698;2022-09-25T09:57:46;1.33;;;0.70;;
46717;SDS011;32448;44.960;-0.698;2022-09-25T10:00:18;2.42;;;1.17;;
46717;SDS011;32448;44.960;-0.698;2022-09-25T10:05:42;2.13;;;1.25;;
46717;SDS011;32448;44.960;-0.698;2022-09-25T10:08:13;1.95;;;0.70;;
46717;SDS011;32448;44.960;-0.698;2022-09-25T10:10:41;1.00;;;0.85;;
46717;SDS011;32448;44.960;-0.698;2022-09-25T10:13:16;2.25;;;0.82;;
46717;SDS011;32448;44.960;-0.698;2022-09-25T10:15:58;1.17;;;0.60;;
46717;SDS011;32448;44.960;-0.698;2022-09-25T10:21:39;2.28;;;0.70;;
46717;SDS011;32448;44.960;-0.698;2022-09-25T10:24:44;1.48;;;0.63;;
46717;SDS011;32448;44.960;-0.698;2022-09-25T10:30:03;0.95;;;0.52;;
46717;SDS011;32448;44.960;-0.698;2022-09-25T10:33:22;1.77;;;0.77;;
46717;SDS011;32448;44.960;-0.698;2022-09-25T10:35:46;1.90;;;0.50;;
46717;SDS011;32448;44.960;-0.698;2022-09-25T10:40:56;1.55;;;0.60;;
46717;SDS011;32448;44.960;-0.698;2022-09-25T10:43:57;1.08;;;0.60;;
46717;SDS011;32448;44.960;-0.698;2022-09-25T10:49:16;3.33;;;0.70;;
46717;SDS011;32448;44.960;-0.698;2022-09-25T10:52:07;1.40;;;0.55;;
46717;SDS011;32448;44.960;-0.698;2022-09-25T10:54:36;0.93;;;0.50;;
46717;SDS011;32448;44.960;-0.698;2022-09-25T10:57:14;2.03;;;0.55;;
46717;SDS011;32448;44.960;-0.698;2022-09-25T11:00:00;1.67;;;0.82;;
46717;SDS011;32448;44.960;-0.698;2022-09-25T11:02:48;1.20;;;0.70;;
46717;SDS011;32448;44.960;-0.698;2022-09-25T11:05:20;1.60;;;0.60;;
46717;SDS011;32448;44.960;-0.698;2022-09-25T11:07:54;1.23;;;0.70;;
46717;SDS011;32448;44.960;-0.698;2022-09-25T11:10:34;1.63;;;0.60;;
46717;SDS011;32448;44.960;-0.698;2022-09-25T11:13:21;0.55;;;0.50;;
46717;SDS011;32448;44.960;-0.698;2022-09-25T11:15:50;3.67;;;0.50;;
46717;SDS011;32448;44.960;-0.698;2022-09-25T11:21:02;1.42;;;0.50;;
46717;SDS011;32448;44.960;-0.698;2022-09-25T11:23:56;1.67;;;0.93;;
46717;SDS011;32448;44.960;-0.698;2022-09-25T11:26:29;1.42;;;0.50;;
46717;SDS011;32448;44.960;-0.698;2022-09-25T11:29:05;1.67;;;0.47;;
46717;SDS011;32448;44.960;-0.698;2022-09-25T11:42:58;3.97;;;2.30;;
46717;SDS011;32448;44.960;-0.698;2022-09-25T11:45:35;2.10;;;0.60;;
46717;SDS011;32448;44.960;-0.698;2022-09-25T11:48:15;1.58;;;0.50;;
46717;SDS011;32448;44.960;-0.698;2022-09-25T11:57:02;0.65;;;0.40;;
46717;SDS011;32448;44.960;-0.698;2022-09-25T12:10:53;1.92;;;0.45;;
46717;SDS011;32448;44.960;-0.698;2022-09-25T12:13:23;1.33;;;0.60;;
46717;SDS011;32448;44.960;-0.698;2022-09-25T12:21:49;1.13;;;0.50;;
46717;SDS011;32448;44.960;-0.698;2022-09-25T12:24:50;3.50;;;0.70;;
46717;SDS011;32448;44.960;-0.698;2022-09-25T12:28:05;0.88;;;0.50;;
46717;SDS011;32448;44.960;-0.698;2022-09-25T12:31:08;1.13;;;0.60;;
46717;SDS011;32448;44.960;-0.698;2022-09-25T12:36:35;1.58;;;0.60;;
46717;SDS011;32448;44.960;-0.698;2022-09-25T12:42:10;1.35;;;0.50;;
46717;SDS011;32448;44.960;-0.698;2022-09-25T12:50:10;0.63;;;0.60;;
46717;SDS011;32448;44.960;-0.698;2022-09-25T12:58:08;2.30;;;0.60;;
46717;SDS011;32448;44.960;-0.698;2022-09-25T13:01:07;2.95;;;0.90;;
46717;SDS011;32448;44.960;-0.698;2022-09-25T13:03:47;1.60;;;0.57;;
46717;SDS011;32448;44.960;-0.698;2022-09-25T13:06:33;1.65;;;0.60;;
46717;SDS011;32448;44.960;-0.698;2022-09-25T13:12:04;1.98;;;0.40;;
46717;SDS011;32448;44.960;-0.698;2022-09-25T13:14:37;5.05;;;0.68;;
46717;SDS011;32448;44.960;-0.698;2022-09-25T13:17:12;1.92;;;0.50;;
46717;SDS011;32448;44.960;-0.698;2022-09-25T13:19:41;1.50;;;0.70;;
46717;SDS011;32448;44.960;-0.698;2022-09-25T13:22:10;0.95;;;0.50;;
46717;SDS011;32448;44.960;-0.698;2022-09-25T13:24:43;1.13;;;0.65;;
46717;SDS011;32448;44.960;-0.698;2022-09-25T13:29:49;1.60;;;0.40;;
46717;SDS011;32448;44.960;-0.698;2022-09-25T13:32:23;3.58;;;0.50;;
46717;SDS011;32448;44.960;-0.698;2022-09-25T13:35:05;1.25;;;0.65;;
46717;SDS011;32448;44.960;-0.698;2022-09-25T13:37:45;1.65;;;0.40;;
46717;SDS011;32448;44.960;-0.698;2022-09-25T13:40:15;0.75;;;0.40;;
46717;SDS011;32448;44.960;-0.698;2022-09-25T13:43:22;0.90;;;0.60;;
46717;SDS011;32448;44.960;-0.698;2022-09-25T13:49:31;1.20;;;0.70;;
46717;SDS011;32448;44.960;-0.698;2022-09-25T13:51:59;2.20;;;0.60;;
46717;SDS011;32448;44.960;-0.698;2022-09-25T13:54:26;1.77;;;0.70;;
46717;SDS011;32448;44.960;-0.698;2022-09-25T13:56:54;1.25;;;0.57;;
46717;SDS011;32448;44.960;-0.698;2022-09-25T13:59:22;1.70;;;0.90;;
46717;SDS011;32448;44.960;-0.698;2022-09-25T14:02:44;1.10;;;0.52;;
46717;SDS011;32448;44.960;-0.698;2022-09-25T14:05:07;1.42;;;0.80;;
46717;SDS011;32448;44.960;-0.698;2022-09-25T14:07:42;1.45;;;0.40;;
46717;SDS011;32448;44.960;-0.698;2022-09-25T14:10:11;2.35;;;0.70;;
46717;SDS011;32448;44.960;-0.698;2022-09-25T14:12:42;2.08;;;0.50;;
46717;SDS011;32448;44.960;-0.698;2022-09-25T14:17:44;1.40;;;0.63;;
46717;SDS011;32448;44.960;-0.698;2022-09-25T14:20:33;2.08;;;0.90;;
46717;SDS011;32448;44.960;-0.698;2022-09-25T14:23:25;0.98;;;0.52;;
46717;SDS011;32448;44.960;-0.698;2022-09-25T14:26:02;1.90;;;0.55;;
46717;SDS011;32448;44.960;-0.698;2022-09-25T14:28:45;1.65;;;0.70;;
46717;SDS011;32448;44.960;-0.698;2022-09-25T14:33:45;3.53;;;0.82;;
46717;SDS011;32448;44.960;-0.698;2022-09-25T14:47:33;1.10;;;0.60;;
46717;SDS011;32448;44.960;-0.698;2022-09-25T14:50:04;2.30;;;0.70;;
46717;SDS011;32448;44.960;-0.698;2022-09-25T14:52:33;3.45;;;0.68;;
46717;SDS011;32448;44.960;-0.698;2022-09-25T14:55:02;1.50;;;0.60;;
46717;SDS011;32448;44.960;-0.698;2022-09-25T14:57:32;5.65;;;0.80;;
46717;SDS011;32448;44.960;-0.698;2022-09-25T15:00:04;1.25;;;0.45;;
46717;SDS011;32448;44.960;-0.698;2022-09-25T15:02:40;1.10;;;0.50;;
46717;SDS011;32448;44.960;-0.698;2022-09-25T15:07:52;1.45;;;0.55;;
46717;SDS011;32448;44.960;-0.698;2022-09-25T15:10:26;1.55;;;0.50;;
46717;SDS011;32448;44.960;-0.698;2022-09-25T15:13:09;2.65;;;0.65;;
46717;SDS011;32448;44.960;-0.698;2022-09-25T15:15:42;2.03;;;0.57;;
46717;SDS011;32448;44.960;-0.698;2022-09-25T15:18:32;1.95;;;0.55;;
46717;SDS011;32448;44.960;-0.698;2022-09-25T15:21:06;2.10;;;0.75;;
46717;SDS011;32448;44.960;-0.698;2022-09-25T15:23:35;2.20;;;0.75;;
46717;SDS011;32448;44.960;-0.698;2022-09-25T15:26:04;2.67;;;0.70;;
46717;SDS011;32448;44.960;-0.698;2022-09-25T15:28:35;1.77;;;0.45;;
46717;SDS011;32448;44.960;-0.698;2022-09-25T15:31:06;2.55;;;0.70;;
46717;SDS011;32448;44.960;-0.698;2022-09-25T15:33:34;1.17;;;0.38;;
46717;SDS011;32448;44.960;-0.698;2022-09-25T15:36:18;1.85;;;0.60;;
46717;SDS011;32448;44.960;-0.698;2022-09-25T15:38:52;1.58;;;0.82;;
46717;SDS011;32448;44.960;-0.698;2022-09-25T15:41:28;1.33;;;0.70;;
46717;SDS011;32448;44.960;-0.698;2022-09-25T15:44:09;1.02;;;0.60;;
46717;SDS011;32448;44.960;-0.698;2022-09-25T15:46:54;1.48;;;0.60;;
46717;SDS011;32448;44.960;-0.698;2022-09-25T15:49:32;1.27;;;0.45;;
46717;SDS011;32448;44.960;-0.698;2022-09-25T15:52:03;2.70;;;0.50;;
46717;SDS011;32448;44.960;-0.698;2022-09-25T15:54:44;2.65;;;0.40;;
46717;SDS011;32448;44.960;-0.698;2022-09-25T15:57:13;3.30;;;0.57;;
46717;SDS011;32448;44.960;-0.698;2022-09-25T15:59:44;1.38;;;0.57;;
46717;SDS011;32448;44.960;-0.698;2022-09-25T16:02:34;2.22;;;0.57;;
46717;SDS011;32448;44.960;-0.698;2022-09-25T16:05:30;1.23;;;0.40;;
46717;SDS011;32448;44.960;-0.698;2022-09-25T16:11:05;0.77;;;0.50;;
46717;SDS011;32448;44.960;-0.698;2022-09-25T16:13:53;1.42;;;0.50;;
46717;SDS011;32448;44.960;-0.698;2022-09-25T16:16:46;2.72;;;0.52;;
46717;SDS011;32448;44.960;-0.698;2022-09-25T16:21:56;0.77;;;0.30;;
46717;SDS011;32448;44.960;-0.698;2022-09-25T16:24:27;5.72;;;0.98;;
46717;SDS011;32448;44.960;-0.698;2022-09-25T16:29:28;1.48;;;0.52;;
46717;SDS011;32448;44.960;-0.698;2022-09-25T16:32:07;1.55;;;0.50;;
46717;SDS011;32448;44.960;-0.698;2022-09-25T16:34:47;1.37;;;0.50;;
46717;SDS011;32448;44.960;-0.698;2022-09-25T16:37:32;3.28;;;0.70;;
46717;SDS011;32448;44.960;-0.698;2022-09-25T16:40:14;10.30;;;0.80;;
46717;SDS011;32448;44.960;-0.698;2022-09-25T16:42:53;2.53;;;0.80;;
46717;SDS011;32448;44.960;-0.698;2022-09-25T16:45:30;4.30;;;0.93;;
46717;SDS011;32448;44.960;-0.698;2022-09-25T16:50:57;2.15;;;0.65;;
46717;SDS011;32448;44.960;-0.698;2022-09-25T16:53:38;7.30;;;0.70;;
46717;SDS011;32448;44.960;-0.698;2022-09-25T16:56:18;13.13;;;1.02;;
46717;SDS011;32448;44.960;-0.698;2022-09-25T16:58:52;5.15;;;0.60;;
46717;SDS011;32448;44.960;-0.698;2022-09-25T17:01:19;5.72;;;0.98;;
46717;SDS011;32448;44.960;-0.698;2022-09-25T17:03:51;10.07;;;1.10;;
46717;SDS011;32448;44.960;-0.698;2022-09-25T17:06:22;6.65;;;0.82;;
46717;SDS011;32448;44.960;-0.698;2022-09-25T17:09:00;8.80;;;0.80;;
46717;SDS011;32448;44.960;-0.698;2022-09-25T17:11:28;9.73;;;1.17;;
46717;SDS011;32448;44.960;-0.698;2022-09-25T17:14:03;31.58;;;3.50;;
46717;SDS011;32448;44.960;-0.698;2022-09-25T17:16:33;2.67;;;0.70;;
46717;SDS011;32448;44.960;-0.698;2022-09-25T17:19:04;14.43;;;2.03;;
46717;SDS011;32448;44.960;-0.698;2022-09-25T17:21:44;14.55;;;2.35;;
46717;SDS011;32448;44.960;-0.698;2022-09-25T17:24:22;6.60;;;1.23;;
46717;SDS011;32448;44.960;-0.698;2022-09-25T17:26:59;2.20;;;0.80;;
46717;SDS011;32448;44.960;-0.698;2022-09-25T17:29:28;3.00;;;0.60;;
46717;SDS011;32448;44.960;-0.698;2022-09-25T17:31:56;4.95;;;1.30;;
46717;SDS011;32448;44.960;-0.698;2022-09-25T17:34:24;2.42;;;0.90;;
46717;SDS011;32448;44.960;-0.698;2022-09-25T17:36:55;2.40;;;1.00;;
46717;SDS011;32448;44.960;-0.698;2022-09-25T17:39:27;5.38;;;0.85;;
46717;SDS011;32448;44.960;-0.698;2022-09-25T17:42:09;2.25;;;0.60;;
46717;SDS011;32448;44.960;-0.698;2022-09-25T17:44:37;2.80;;;0.80;;
46717;SDS011;32448;44.960;-0.698;2022-09-25T17:47:08;2.10;;;0.70;;
46717;SDS011;32448;44.960;-0.698;2022-09-25T17:49:36;2.00;;;0.80;;
46717;SDS011;32448;44.960;-0.698;2022-09-25T17:52:03;1.23;;;0.60;;